createdAt,value
2022-09-06T00:00:57.990Z,17.10
2022-09-06T00:03:27.214Z,17.00
2022-09-06T00:05:54.013Z,17.20
2022-09-06T00:08:20.612Z,17.20
2022-09-06T00:10:47.245Z,17.10
2022-09-06T00:13:13.795Z,17.10
2022-09-06T00:15:40.608Z,17.20
2022-09-06T00:18:08.124Z,17.20
2022-09-06T00:20:35.122Z,17.20
2022-09-06T00:23:05.634Z,17.10
2022-09-06T00:25:33.206Z,17.40
2022-09-06T00:28:02.253Z,17.40
2022-09-06T00:30:30.510Z,17.40
2022-09-06T00:32:57.541Z,17.30
2022-09-06T00:35:25.949Z,17.30
2022-09-06T00:37:56.984Z,17.50
2022-09-06T00:40:23.653Z,17.60
2022-09-06T00:42:50.249Z,17.70
2022-09-06T00:45:16.907Z,17.90
2022-09-06T00:47:44.077Z,17.90
2022-09-06T00:50:13.457Z,17.80
2022-09-06T00:52:42.730Z,17.70
2022-09-06T00:55:09.800Z,17.50
2022-09-06T00:57:36.594Z,17.40
2022-09-06T01:00:06.775Z,17.30
2022-09-06T01:02:33.499Z,17.40
2022-09-06T01:05:01.047Z,17.50
2022-09-06T01:08:01.401Z,17.60
2022-09-06T01:10:47.297Z,17.50
2022-09-06T01:13:34.286Z,17.40
2022-09-06T01:16:18.061Z,17.30
2022-09-06T01:18:56.987Z,17.20
2022-09-06T01:21:47.644Z,17.20
2022-09-06T01:24:49.253Z,17.10
2022-09-06T01:27:31.145Z,17.00
2022-09-06T01:30:09.944Z,16.90
2022-09-06T01:33:15.646Z,16.90
2022-09-06T01:35:55.594Z,16.90
2022-09-06T01:38:22.383Z,16.90
2022-09-06T01:40:48.974Z,16.90
2022-09-06T01:43:31.142Z,16.90
2022-09-06T01:46:21.845Z,16.90
2022-09-06T01:49:23.877Z,16.80
2022-09-06T01:52:02.271Z,16.80
2022-09-06T01:54:41.966Z,16.70
2022-09-06T01:57:18.950Z,16.70
2022-09-06T02:00:05.737Z,16.70
2022-09-06T02:03:00.709Z,16.60
2022-09-06T02:05:49.562Z,16.70
2022-09-06T02:08:28.071Z,16.70
2022-09-06T02:11:02.231Z,16.80
2022-09-06T02:14:02.587Z,17.00
2022-09-06T02:16:32.259Z,17.40
2022-09-06T02:24:07.666Z,18.50
2022-09-06T02:26:38.711Z,18.70
2022-09-06T02:29:05.590Z,18.90
2022-09-06T02:31:37.330Z,19.00
2022-09-06T02:34:04.766Z,19.10
2022-09-06T02:36:32.292Z,19.20
2022-09-06T02:39:02.066Z,19.40
2022-09-06T02:41:29.419Z,19.30
2022-09-06T02:43:55.989Z,19.30
2022-09-06T02:46:24.310Z,19.20
2022-09-06T02:48:51.639Z,19.10
2022-09-06T02:51:18.684Z,18.90
2022-09-06T02:53:45.271Z,18.60
2022-09-06T02:56:12.149Z,18.40
2022-09-06T02:58:38.839Z,17.70
2022-09-06T03:01:05.995Z,17.20
2022-09-06T03:03:32.722Z,16.80
2022-09-06T03:05:59.332Z,16.70
2022-09-06T03:08:26.421Z,16.60
2022-09-06T03:10:56.051Z,16.70
2022-09-06T03:13:24.141Z,16.70
2022-09-06T03:15:52.622Z,16.70
2022-09-06T03:18:19.510Z,16.60
2022-09-06T03:20:46.089Z,16.70
2022-09-06T03:23:12.647Z,16.50
2022-09-06T03:25:39.215Z,16.50
2022-09-06T03:28:05.879Z,16.50
2022-09-06T03:30:32.501Z,16.50
2022-09-06T03:33:02.654Z,16.50
2022-09-06T03:35:29.630Z,16.40
2022-09-06T03:37:56.222Z,16.40
2022-09-06T03:40:23.360Z,16.30
2022-09-06T03:42:49.961Z,16.30
2022-09-06T03:45:16.623Z,16.20
2022-09-06T03:47:43.261Z,16.10
2022-09-06T03:50:10.112Z,16.10
2022-09-06T03:52:36.807Z,16.20
2022-09-06T03:55:04.733Z,16.20
2022-09-06T03:57:31.360Z,16.20
2022-09-06T03:59:57.966Z,16.30
2022-09-06T04:02:24.650Z,16.30
2022-09-06T04:04:55.344Z,16.30
2022-09-06T04:07:22.898Z,16.40
2022-09-06T04:09:49.639Z,16.40
2022-09-06T04:12:16.243Z,16.40
2022-09-06T04:14:42.841Z,16.40
2022-09-06T04:17:09.579Z,16.40
2022-09-06T04:19:36.207Z,16.40
2022-09-06T04:22:03.024Z,16.40
2022-09-06T04:24:29.603Z,16.40
2022-09-06T04:26:56.167Z,16.40
2022-09-06T04:29:23.168Z,16.30
2022-09-06T04:31:49.798Z,16.40
2022-09-06T04:34:16.472Z,16.40
2022-09-06T04:36:48.064Z,16.40
2022-09-06T04:39:15.033Z,16.30
2022-09-06T04:41:42.517Z,16.30
2022-09-06T04:44:09.345Z,16.30
2022-09-06T04:46:35.946Z,16.30
2022-09-06T04:49:02.513Z,16.30
2022-09-06T04:51:29.114Z,16.30
2022-09-06T04:53:55.799Z,16.20
2022-09-06T04:56:24.967Z,16.20
2022-09-06T04:58:53.400Z,16.20
2022-09-06T05:01:20.891Z,16.20
2022-09-06T05:03:48.003Z,16.20
2022-09-06T05:06:21.433Z,16.20
2022-09-06T05:08:48.625Z,16.10
2022-09-06T05:11:15.225Z,16.20
2022-09-06T05:13:42.285Z,16.20
2022-09-06T05:16:09.776Z,16.20
2022-09-06T05:18:36.804Z,16.20
2022-09-06T05:21:03.578Z,16.30
2022-09-06T05:23:30.263Z,16.30
2022-09-06T05:25:56.906Z,16.30
2022-09-06T05:28:23.610Z,16.30
2022-09-06T05:30:50.275Z,16.40
2022-09-06T05:33:22.249Z,16.50
2022-09-06T05:35:49.384Z,16.50
2022-09-06T05:38:16.010Z,16.50
2022-09-06T05:40:42.671Z,16.50
2022-09-06T05:43:09.443Z,16.40
2022-09-06T05:45:36.175Z,16.50
2022-09-06T05:48:03.160Z,16.50
2022-09-06T05:50:29.752Z,16.50
2022-09-06T05:52:56.357Z,16.60
2022-09-06T05:55:22.957Z,16.70
2022-09-06T05:57:49.535Z,16.70
2022-09-06T06:00:16.311Z,16.80
2022-09-06T06:02:42.938Z,16.80
2022-09-06T06:05:09.630Z,16.90
2022-09-06T06:07:36.201Z,17.00
2022-09-06T06:10:02.970Z,17.00
2022-09-06T06:12:29.581Z,17.00
2022-09-06T06:14:56.210Z,16.90
2022-09-06T06:17:23.443Z,17.00
2022-09-06T06:19:50.108Z,17.10
2022-09-06T06:22:16.718Z,17.30
2022-09-06T06:24:43.338Z,17.30
2022-09-06T06:27:09.927Z,17.20
2022-09-06T06:29:36.581Z,17.30
2022-09-06T06:32:03.594Z,17.40
2022-09-06T06:34:30.906Z,17.50
2022-09-06T06:36:58.071Z,17.60
2022-09-06T06:39:24.795Z,17.50
2022-09-06T06:41:52.734Z,17.70
2022-09-06T06:44:19.342Z,17.80
2022-09-06T06:46:45.965Z,17.80
2022-09-06T06:49:12.632Z,18.00
2022-09-06T06:51:39.545Z,18.10
2022-09-06T06:54:06.324Z,18.40
2022-09-06T06:56:35.652Z,18.40
2022-09-06T06:59:04.805Z,18.80
2022-09-06T07:01:33.085Z,18.90
2022-09-06T07:04:00.101Z,19.00
2022-09-06T07:09:19.598Z,19.00
2022-09-06T07:11:48.717Z,19.10
2022-09-06T07:14:17.165Z,19.20
2022-09-06T07:16:44.398Z,19.30
2022-09-06T07:22:00.278Z,19.30
2022-09-06T07:24:29.211Z,19.50
2022-09-06T07:29:42.404Z,19.60
2022-09-06T07:34:37.757Z,19.80
2022-09-06T07:37:04.315Z,19.80
2022-09-06T07:39:33.100Z,19.90
2022-09-06T07:41:59.748Z,20.00
2022-09-06T07:44:27.475Z,20.20
2022-09-06T07:46:54.209Z,20.30
2022-09-06T07:49:21.263Z,20.50
2022-09-06T07:51:48.862Z,20.70
2022-09-06T07:54:31.527Z,20.80
2022-09-06T07:56:58.356Z,21.00
2022-09-06T07:59:24.925Z,21.10
2022-09-06T08:01:51.615Z,21.20
2022-09-06T08:04:18.395Z,21.30
2022-09-06T08:09:35.309Z,21.60
2022-09-06T08:12:07.289Z,21.80
2022-09-06T08:14:34.798Z,22.00
2022-09-06T08:17:02.159Z,22.20
2022-09-06T08:19:28.752Z,22.10
2022-09-06T08:21:55.944Z,22.30
2022-09-06T08:24:22.913Z,22.30
2022-09-06T08:26:49.797Z,22.40
2022-09-06T08:29:16.401Z,22.60
2022-09-06T08:31:45.595Z,22.70
2022-09-06T08:34:12.755Z,22.80
2022-09-06T08:36:40.186Z,22.90
2022-09-06T08:39:09.782Z,23.00
2022-09-06T08:41:47.659Z,23.10
2022-09-06T08:47:17.307Z,23.40
2022-09-06T08:49:46.565Z,23.50
2022-09-06T08:52:31.906Z,23.70
2022-09-06T08:55:04.443Z,23.90
2022-09-06T08:57:45.574Z,24.20
2022-09-06T09:00:13.662Z,24.60
2022-09-06T09:02:47.661Z,24.70
2022-09-06T09:05:31.206Z,25.10
2022-09-06T09:08:02.110Z,25.50
2022-09-06T09:10:32.436Z,26.00
2022-09-06T09:13:03.145Z,26.40
2022-09-06T09:15:29.837Z,26.80
2022-09-06T09:17:56.489Z,26.70
2022-09-06T09:20:23.143Z,26.80
2022-09-06T09:22:49.773Z,26.90
2022-09-06T09:25:23.004Z,27.00
2022-09-06T09:27:57.565Z,27.00
2022-09-06T09:30:47.779Z,26.90
2022-09-06T09:33:36.979Z,27.40
2022-09-06T09:36:09.726Z,27.50
2022-09-06T09:38:49.207Z,27.60
2022-09-06T09:41:29.614Z,27.80
2022-09-06T09:44:04.613Z,27.90
2022-09-06T09:46:39.777Z,27.90
2022-09-06T09:49:11.909Z,27.50
2022-09-06T09:51:46.996Z,27.30
2022-09-06T09:54:29.393Z,27.10
2022-09-06T09:56:57.212Z,27.00
2022-09-06T09:59:47.787Z,27.00
2022-09-06T10:02:39.027Z,27.00
2022-09-06T10:05:09.705Z,27.20
2022-09-06T10:07:44.122Z,27.30
2022-09-06T10:10:35.550Z,27.50
2022-09-06T10:13:22.525Z,27.70
2022-09-06T10:15:51.653Z,27.90
2022-09-06T10:18:37.194Z,28.00
2022-09-06T10:21:12.964Z,28.10
2022-09-06T10:26:55.202Z,28.30
2022-09-06T10:29:45.110Z,28.50
2022-09-06T10:32:31.033Z,28.60
2022-09-06T10:35:19.089Z,28.70
2022-09-06T10:37:52.026Z,28.70
2022-09-06T10:40:31.895Z,28.60
2022-09-06T10:43:01.324Z,28.60
2022-09-06T10:45:31.691Z,28.30
2022-09-06T10:48:04.637Z,28.20
2022-09-06T10:50:56.637Z,28.20
2022-09-06T10:53:27.365Z,28.40
2022-09-06T10:56:10.648Z,28.60
2022-09-06T11:02:20.096Z,28.50
2022-09-06T11:07:42.707Z,29.10
2022-09-06T11:10:29.024Z,29.20
2022-09-06T11:13:21.961Z,29.20
2022-09-06T11:16:10.949Z,29.20
2022-09-06T11:18:47.005Z,29.20
2022-09-06T11:21:26.547Z,28.70
2022-09-06T11:24:06.578Z,28.50
2022-09-06T11:26:54.757Z,28.40
2022-09-06T11:29:24.815Z,28.50
2022-09-06T11:34:41.193Z,28.10
2022-09-06T11:37:22.905Z,27.90
2022-09-06T11:42:52.918Z,27.50
2022-09-06T11:45:21.891Z,27.70
2022-09-06T11:47:51.690Z,27.30
2022-09-06T11:50:21.139Z,27.50
2022-09-06T11:53:12.703Z,27.70
2022-09-06T11:55:50.835Z,27.80
2022-09-06T11:58:17.695Z,27.90
2022-09-06T12:01:13.250Z,27.90
2022-09-06T12:04:05.910Z,27.80
2022-09-06T12:07:03.423Z,27.80
2022-09-06T12:09:35.210Z,27.60
2022-09-06T12:12:03.144Z,27.20
2022-09-06T12:14:35.679Z,27.30
2022-09-06T12:17:04.676Z,27.10
2022-09-06T12:22:27.645Z,26.50
2022-09-06T12:25:02.471Z,26.40
2022-09-06T12:27:35.103Z,26.20
2022-09-06T12:30:12.097Z,26.10
2022-09-06T12:32:44.345Z,26.00
2022-09-06T12:38:16.055Z,25.70
2022-09-06T12:40:51.518Z,25.50
2022-09-06T12:43:19.417Z,25.40
2022-09-06T12:45:50.534Z,25.30
2022-09-06T12:48:32.311Z,25.20
2022-09-06T12:51:04.797Z,25.10
2022-09-06T12:53:34.095Z,25.10
2022-09-06T12:56:06.506Z,25.10
2022-09-06T12:58:33.816Z,25.10
2022-09-06T13:01:30.363Z,25.10
2022-09-06T13:04:12.837Z,25.10
2022-09-06T13:06:42.728Z,25.00
2022-09-06T13:09:13.834Z,25.00
2022-09-06T13:11:45.091Z,25.00
2022-09-06T13:14:24.742Z,24.90
2022-09-06T13:16:53.640Z,25.00
2022-09-06T13:19:36.361Z,25.30
2022-09-06T13:22:05.455Z,25.40
2022-09-06T13:24:35.407Z,25.70
2022-09-06T13:27:22.939Z,25.80
2022-09-06T13:30:09.945Z,25.80
2022-09-06T13:32:45.628Z,25.70
2022-09-06T13:35:23.780Z,25.50
2022-09-06T13:37:50.855Z,25.20
2022-09-06T13:41:10.510Z,24.90
2022-09-06T13:43:33.326Z,24.70
2022-09-06T13:46:11.577Z,24.50
2022-09-06T13:48:43.008Z,24.40
2022-09-06T13:51:10.480Z,24.20
2022-09-06T13:53:37.157Z,24.10
2022-09-06T13:56:04.998Z,24.00
2022-09-06T13:58:31.617Z,23.90
2022-09-06T14:00:58.828Z,23.90
2022-09-06T14:03:29.289Z,23.80
2022-09-06T14:05:55.949Z,23.80
2022-09-06T14:08:23.054Z,23.80
2022-09-06T14:10:51.360Z,23.60
2022-09-06T14:13:18.434Z,23.60
2022-09-06T14:15:46.768Z,23.50
2022-09-06T14:18:14.548Z,23.50
2022-09-06T14:20:42.335Z,23.30
2022-09-06T14:23:09.498Z,23.20
2022-09-06T14:25:37.259Z,23.20
2022-09-06T14:28:04.748Z,23.10
2022-09-06T14:30:31.580Z,23.10
2022-09-06T14:32:58.494Z,23.00
2022-09-06T14:35:25.113Z,22.90
2022-09-06T14:37:51.819Z,22.80
2022-09-06T14:40:18.676Z,22.70
2022-09-06T14:42:49.875Z,22.70
2022-09-06T14:45:17.525Z,22.60
2022-09-06T14:47:44.172Z,22.50
2022-09-06T14:50:10.883Z,22.40
2022-09-06T14:52:37.550Z,22.50
2022-09-06T14:55:04.403Z,22.40
2022-09-06T14:57:31.054Z,22.40
2022-09-06T14:59:58.159Z,22.30
2022-09-06T15:02:26.234Z,22.30
2022-09-06T15:04:53.118Z,22.20
2022-09-06T15:07:19.854Z,22.10
2022-09-06T15:09:46.464Z,22.00
2022-09-06T15:12:13.376Z,21.90
2022-09-06T15:14:41.043Z,21.80
2022-09-06T15:17:08.914Z,21.80
2022-09-06T15:19:36.956Z,21.80
2022-09-06T15:22:04.901Z,21.80
2022-09-06T15:24:32.797Z,21.70
2022-09-06T15:26:59.800Z,21.90
2022-09-06T15:29:29.335Z,21.90
2022-09-06T15:31:56.231Z,22.00
2022-09-06T15:34:25.444Z,22.30
2022-09-06T15:36:53.447Z,22.60
2022-09-06T15:39:20.298Z,23.10
2022-09-06T15:41:47.012Z,23.80
2022-09-06T15:44:16.546Z,24.20
2022-09-06T15:46:56.757Z,24.70
2022-09-06T15:49:28.285Z,24.90
2022-09-06T15:51:56.409Z,24.80
2022-09-06T15:54:41.471Z,24.20
2022-09-06T15:57:08.299Z,24.20
2022-09-06T15:59:34.874Z,24.10
2022-09-06T16:02:01.731Z,24.00
2022-09-06T16:04:28.324Z,23.80
2022-09-06T16:06:56.682Z,23.70
2022-09-06T16:09:23.393Z,23.50
2022-09-06T16:11:50.075Z,23.40
2022-09-06T16:14:17.560Z,23.30
2022-09-06T16:16:45.496Z,23.20
2022-09-06T16:19:12.813Z,23.20
2022-09-06T16:21:41.635Z,23.20
2022-09-06T16:24:11.971Z,23.30
2022-09-06T16:26:43.520Z,23.30
2022-09-06T16:29:11.814Z,23.50
2022-09-06T16:31:40.508Z,23.70
2022-09-06T16:34:08.888Z,24.00
2022-09-06T16:36:35.724Z,24.30
2022-09-06T16:39:02.698Z,24.60
2022-09-06T16:41:41.193Z,24.60
2022-09-06T16:44:09.458Z,24.50
2022-09-06T16:46:36.540Z,24.40
2022-09-06T16:49:04.377Z,24.80
2022-09-06T16:51:31.387Z,24.80
2022-09-06T16:53:59.524Z,24.50
2022-09-06T16:56:29.407Z,24.30
2022-09-06T16:58:58.655Z,24.00
2022-09-06T17:01:27.313Z,23.80
2022-09-06T17:03:54.133Z,23.50
2022-09-06T17:06:21.773Z,23.20
2022-09-06T17:08:48.537Z,22.90
2022-09-06T17:11:20.455Z,22.70
2022-09-06T17:13:49.941Z,22.50
2022-09-06T17:16:36.804Z,22.30
2022-09-06T17:19:05.718Z,22.10
2022-09-06T17:21:32.863Z,21.90
2022-09-06T17:24:02.917Z,21.80
2022-09-06T17:26:31.113Z,21.70
2022-09-06T17:28:57.781Z,21.70
2022-09-06T17:31:26.099Z,21.40
2022-09-06T17:33:53.678Z,21.30
2022-09-06T17:36:23.595Z,21.20
2022-09-06T17:38:53.388Z,21.10
2022-09-06T17:41:50.800Z,20.90
2022-09-06T17:44:21.171Z,20.80
2022-09-06T17:47:08.943Z,20.80
2022-09-06T17:49:35.427Z,20.60
2022-09-06T17:52:02.204Z,20.50
2022-09-06T17:54:29.707Z,20.40
2022-09-06T17:56:56.439Z,20.30
2022-09-06T17:59:23.090Z,20.20
2022-09-06T18:01:49.680Z,20.10
2022-09-06T18:04:16.532Z,20.00
2022-09-06T18:06:46.278Z,19.90
2022-09-06T18:09:15.883Z,19.80
2022-09-06T18:11:45.486Z,19.80
2022-09-06T18:14:16.111Z,19.70
2022-09-06T18:16:45.255Z,19.50
2022-09-06T18:19:12.279Z,19.50
2022-09-06T18:21:40.884Z,19.40
2022-09-06T18:26:37.281Z,19.20
2022-09-06T18:29:06.936Z,19.20
2022-09-06T18:31:34.022Z,19.10
2022-09-06T18:34:00.787Z,19.10
2022-09-06T18:36:31.946Z,19.00
2022-09-06T18:39:02.760Z,19.00
2022-09-06T18:41:48.296Z,19.00
2022-09-06T18:44:15.541Z,19.00
2022-09-06T18:46:42.180Z,19.00
2022-09-06T18:49:08.919Z,18.90
2022-09-06T18:51:38.748Z,18.90
2022-09-06T18:54:06.786Z,18.90
2022-09-06T18:56:33.712Z,18.90
2022-09-06T18:59:02.114Z,18.80
2022-09-06T19:01:30.454Z,18.80
2022-09-06T19:03:58.498Z,18.80
2022-09-06T19:06:26.310Z,18.90
2022-09-06T19:08:53.774Z,18.80
2022-09-06T19:11:21.811Z,18.70
2022-09-06T19:13:51.816Z,18.80
2022-09-06T19:16:19.239Z,18.80
2022-09-06T19:18:46.061Z,19.00
2022-09-06T19:21:15.075Z,18.90
2022-09-06T19:23:46.647Z,18.70
2022-09-06T19:26:19.318Z,18.60
2022-09-06T19:28:50.270Z,18.60
2022-09-06T19:31:17.585Z,18.50
2022-09-06T19:33:46.174Z,18.50
2022-09-06T19:36:13.465Z,18.50
2022-09-06T19:39:02.583Z,18.60
2022-09-06T19:41:29.880Z,18.60
2022-09-06T19:43:57.303Z,18.50
2022-09-06T19:46:24.867Z,18.60
2022-09-06T19:48:53.994Z,18.60
2022-09-06T19:51:21.425Z,18.60
2022-09-06T19:53:52.155Z,18.60
2022-09-06T19:56:22.739Z,18.50
2022-09-06T19:58:55.165Z,18.40
2022-09-06T20:01:22.603Z,18.40
2022-09-06T20:03:49.285Z,18.30
2022-09-06T20:06:16.108Z,18.20
2022-09-06T20:08:43.048Z,18.20
2022-09-06T20:11:12.531Z,18.20
2022-09-06T20:13:39.889Z,18.30
2022-09-06T20:16:08.515Z,18.30
2022-09-06T20:18:35.587Z,18.30
2022-09-06T20:21:02.834Z,18.20
2022-09-06T20:23:30.575Z,18.20
2022-09-06T20:25:58.359Z,18.20
2022-09-06T20:28:25.018Z,18.10
2022-09-06T20:30:52.174Z,18.10
2022-09-06T20:33:18.811Z,18.00
2022-09-06T20:36:04.249Z,18.00
2022-09-06T20:38:32.356Z,18.10
2022-09-06T20:41:05.078Z,18.20
2022-09-06T20:43:34.400Z,18.30
2022-09-06T20:46:04.160Z,18.20
2022-09-06T20:48:34.740Z,18.20
2022-09-06T20:51:04.130Z,18.20
2022-09-06T20:53:34.283Z,18.20
2022-09-06T20:56:04.238Z,18.10
2022-09-06T20:58:31.740Z,18.00
2022-09-06T21:00:59.818Z,18.10
2022-09-06T21:03:26.952Z,18.20
2022-09-06T21:05:54.158Z,18.30
2022-09-06T21:08:21.165Z,18.40
2022-09-06T21:10:47.778Z,18.50
2022-09-06T21:13:14.525Z,18.60
2022-09-06T21:15:41.173Z,18.60
2022-09-06T21:18:09.218Z,18.60
2022-09-06T21:20:36.156Z,18.60
2022-09-06T21:23:03.002Z,18.60
2022-09-06T21:25:29.793Z,18.50
2022-09-06T21:27:56.449Z,18.40
2022-09-06T21:30:23.123Z,18.30
2022-09-06T21:32:53.686Z,18.30
2022-09-06T21:35:20.383Z,18.20
2022-09-06T21:37:46.965Z,18.20
2022-09-06T21:40:13.699Z,18.30
2022-09-06T21:42:40.309Z,18.30
2022-09-06T21:45:07.255Z,18.30
2022-09-06T21:47:33.855Z,18.20
2022-09-06T21:50:00.458Z,18.10
2022-09-06T21:52:30.374Z,18.10
2022-09-06T21:54:56.971Z,18.10
2022-09-06T21:57:23.529Z,18.30
2022-09-06T21:59:50.097Z,18.40
2022-09-06T22:02:16.889Z,18.30
2022-09-06T22:04:43.638Z,18.20
2022-09-06T22:07:10.257Z,18.20
2022-09-06T22:09:36.841Z,18.10
2022-09-06T22:12:03.992Z,18.10
2022-09-06T22:14:30.583Z,18.20
2022-09-06T22:16:57.411Z,18.30
2022-09-06T22:19:24.119Z,18.40
2022-09-06T22:21:53.252Z,18.40
2022-09-06T22:24:19.987Z,18.20
2022-09-06T22:26:46.643Z,18.20
2022-09-06T22:29:16.555Z,18.20
2022-09-06T22:31:43.567Z,18.20
2022-09-06T22:34:11.001Z,18.50
2022-09-06T22:36:37.650Z,18.60
2022-09-06T22:39:05.084Z,18.40
2022-09-06T22:41:33.853Z,18.20
2022-09-06T22:44:02.214Z,18.40
2022-09-06T22:46:29.678Z,18.30
2022-09-06T22:48:56.299Z,18.10
2022-09-06T22:51:23.169Z,17.90
2022-09-06T22:53:49.869Z,18.10
2022-09-06T22:56:16.441Z,18.20
2022-09-06T22:58:43.002Z,18.10
2022-09-06T23:01:12.546Z,18.00
2022-09-06T23:03:40.024Z,17.90
2022-09-06T23:06:07.251Z,17.80
2022-09-06T23:08:35.904Z,17.80
2022-09-06T23:11:07.310Z,17.80
2022-09-06T23:13:33.938Z,17.80
2022-09-06T23:16:06.270Z,17.80
2022-09-06T23:18:33.316Z,17.80
2022-09-06T23:21:07.862Z,17.90
2022-09-06T23:23:36.201Z,17.90
2022-09-06T23:26:04.443Z,18.00
2022-09-06T23:28:31.131Z,18.20
2022-09-06T23:30:58.371Z,18.40
2022-09-06T23:33:25.099Z,18.50
2022-09-06T23:35:54.491Z,18.50
2022-09-06T23:38:21.358Z,18.60
2022-09-06T23:40:48.209Z,18.70
2022-09-06T23:43:14.819Z,18.70
2022-09-06T23:45:42.228Z,18.60
2022-09-06T23:48:08.867Z,18.60
2022-09-06T23:50:35.505Z,18.50
2022-09-06T23:53:02.129Z,18.40
2022-09-06T23:55:28.889Z,18.30
2022-09-06T23:57:55.476Z,18.30
